createdAt,value
2022-10-08T00:00:20.125Z,10.99
2022-10-08T00:01:20.120Z,10.99
2022-10-08T00:02:20.162Z,10.95
2022-10-08T00:03:20.094Z,10.98
2022-10-08T00:04:20.089Z,10.98
2022-10-08T00:05:20.056Z,10.98
2022-10-08T00:06:20.045Z,10.98
2022-10-08T00:07:20.059Z,10.99
2022-10-08T00:08:20.050Z,10.99
2022-10-08T00:09:20.008Z,11.01
2022-10-08T00:10:19.993Z,11.01
2022-10-08T00:11:19.984Z,10.99
2022-10-08T00:12:19.988Z,10.96
2022-10-08T00:13:19.974Z,10.96
2022-10-08T00:14:26.517Z,10.98
2022-10-08T00:15:19.936Z,10.96
2022-10-08T00:16:19.989Z,10.98
2022-10-08T00:17:19.933Z,10.99
2022-10-08T00:18:19.932Z,10.98
2022-10-08T00:19:19.887Z,10.98
2022-10-08T00:20:19.890Z,10.95
2022-10-08T00:21:19.871Z,10.94
2022-10-08T00:22:19.877Z,10.95
2022-10-08T00:23:19.861Z,10.92
2022-10-08T00:24:19.839Z,10.91
2022-10-08T00:25:19.822Z,10.89
2022-10-08T00:26:19.815Z,10.88
2022-10-08T00:27:19.827Z,10.86
2022-10-08T00:28:19.868Z,10.84
2022-10-08T00:29:19.778Z,10.84
2022-10-08T00:30:19.795Z,10.84
2022-10-08T00:31:19.812Z,10.81
2022-10-08T00:32:19.750Z,10.84
2022-10-08T00:33:19.752Z,10.83
2022-10-08T00:34:19.725Z,10.83
2022-10-08T00:35:19.728Z,10.83
2022-10-08T00:36:19.731Z,10.81
2022-10-08T00:37:19.701Z,10.83
2022-10-08T00:38:19.703Z,10.81
2022-10-08T00:39:19.669Z,10.84
2022-10-08T00:40:19.681Z,10.84
2022-10-08T00:41:20.811Z,10.83
2022-10-08T00:42:19.638Z,10.83
2022-10-08T00:43:23.903Z,10.83
2022-10-08T00:44:19.624Z,10.83
2022-10-08T00:45:19.603Z,10.81
2022-10-08T00:46:19.603Z,10.81
2022-10-08T00:47:19.576Z,10.81
2022-10-08T00:48:19.609Z,10.84
2022-10-08T00:49:19.557Z,10.83
2022-10-08T00:50:19.589Z,10.83
2022-10-08T00:51:19.529Z,10.81
2022-10-08T00:52:19.524Z,10.81
2022-10-08T00:53:19.529Z,10.80
2022-10-08T00:54:19.564Z,10.77
2022-10-08T00:55:19.487Z,10.77
2022-10-08T00:56:19.489Z,10.74
2022-10-08T00:57:19.463Z,10.74
2022-10-08T00:58:19.492Z,10.76
2022-10-08T00:59:19.448Z,10.74
2022-10-08T01:00:19.442Z,10.74
2022-10-08T01:01:19.462Z,10.74
2022-10-08T01:02:19.593Z,10.74
2022-10-08T01:03:19.416Z,10.76
2022-10-08T01:04:19.388Z,10.77
2022-10-08T01:05:19.378Z,10.78
2022-10-08T01:06:19.378Z,10.80
2022-10-08T01:07:19.368Z,10.78
2022-10-08T01:08:19.371Z,10.80
2022-10-08T01:09:19.736Z,10.81
2022-10-08T01:10:19.335Z,10.80
2022-10-08T01:11:19.304Z,10.80
2022-10-08T01:12:19.318Z,10.80
2022-10-08T01:13:19.308Z,10.80
2022-10-08T01:14:19.282Z,10.78
2022-10-08T01:15:19.272Z,10.78
2022-10-08T01:16:19.294Z,10.78
2022-10-08T01:17:19.249Z,10.78
2022-10-08T01:18:19.256Z,10.78
2022-10-08T01:19:19.237Z,10.78
2022-10-08T01:20:19.214Z,10.78
2022-10-08T01:21:19.205Z,10.77
2022-10-08T01:22:19.190Z,10.77
2022-10-08T01:23:19.196Z,10.77
2022-10-08T01:24:19.168Z,10.74
2022-10-08T01:25:19.183Z,10.73
2022-10-08T01:26:19.154Z,10.74
2022-10-08T01:27:19.140Z,10.74
2022-10-08T01:28:19.206Z,10.73
2022-10-08T01:29:19.110Z,10.70
2022-10-08T01:30:19.120Z,10.68
2022-10-08T01:31:19.241Z,10.66
2022-10-08T01:32:19.085Z,10.65
2022-10-08T01:33:19.143Z,10.66
2022-10-08T01:34:19.078Z,10.65
2022-10-08T01:35:19.042Z,10.65
2022-10-08T01:36:19.039Z,10.63
2022-10-08T01:37:19.023Z,10.62
2022-10-08T01:38:19.037Z,10.63
2022-10-08T01:39:19.009Z,10.62
2022-10-08T01:40:18.991Z,10.59
2022-10-08T01:41:18.986Z,10.59
2022-10-08T01:42:18.977Z,10.58
2022-10-08T01:43:18.976Z,10.58
2022-10-08T01:44:18.959Z,10.58
2022-10-08T01:45:18.933Z,10.56
2022-10-08T01:46:19.010Z,10.55
2022-10-08T01:47:18.921Z,10.53
2022-10-08T01:48:18.935Z,10.52
2022-10-08T01:49:18.908Z,10.51
2022-10-08T01:50:18.888Z,10.52
2022-10-08T01:51:18.885Z,10.55
2022-10-08T01:52:18.877Z,10.55
2022-10-08T01:53:18.873Z,10.53
2022-10-08T01:54:18.839Z,10.55
2022-10-08T01:55:18.851Z,10.52
2022-10-08T01:56:18.816Z,10.52
2022-10-08T01:57:18.827Z,10.53
2022-10-08T01:58:18.838Z,10.53
2022-10-08T01:59:18.797Z,10.62
2022-10-08T02:00:18.775Z,10.65
2022-10-08T02:01:18.818Z,10.68
2022-10-08T02:02:18.823Z,10.68
2022-10-08T02:03:18.775Z,10.70
2022-10-08T02:04:18.743Z,10.68
2022-10-08T02:05:18.715Z,10.68
2022-10-08T02:06:18.717Z,10.66
2022-10-08T02:07:18.695Z,10.68
2022-10-08T02:08:18.715Z,10.66
2022-10-08T02:09:18.672Z,10.66
2022-10-08T02:10:18.667Z,10.66
2022-10-08T02:11:18.665Z,10.68
2022-10-08T02:12:18.671Z,10.68
2022-10-08T02:13:18.653Z,10.70
2022-10-08T02:14:18.619Z,10.71
2022-10-08T02:15:18.608Z,10.73
2022-10-08T02:16:18.639Z,10.74
2022-10-08T02:17:18.584Z,10.76
2022-10-08T02:18:18.602Z,10.78
2022-10-08T02:19:18.605Z,10.80
2022-10-08T02:20:18.560Z,10.80
2022-10-08T02:21:18.543Z,10.81
2022-10-08T02:22:18.542Z,10.83
2022-10-08T02:23:18.549Z,10.86
2022-10-08T02:24:18.514Z,10.88
2022-10-08T02:25:18.507Z,10.91
2022-10-08T02:26:18.488Z,10.98
2022-10-08T02:27:18.478Z,11.01
2022-10-08T02:28:18.528Z,11.09
2022-10-08T02:29:18.449Z,11.10
2022-10-08T02:30:18.459Z,11.13
2022-10-08T02:31:18.467Z,11.14
2022-10-08T02:32:18.427Z,11.16
2022-10-08T02:33:18.425Z,11.17
2022-10-08T02:34:18.414Z,11.19
2022-10-08T02:35:18.402Z,11.21
2022-10-08T02:36:18.390Z,11.21
2022-10-08T02:37:18.369Z,11.24
2022-10-08T02:38:18.365Z,11.25
2022-10-08T02:39:18.368Z,11.25
2022-10-08T02:40:18.343Z,11.25
2022-10-08T02:41:18.337Z,11.25
2022-10-08T02:42:18.341Z,11.27
2022-10-08T02:43:18.299Z,11.28
2022-10-08T02:44:18.310Z,11.28
2022-10-08T02:45:18.306Z,11.31
2022-10-08T02:46:18.301Z,11.35
2022-10-08T02:47:18.270Z,11.47
2022-10-08T02:48:18.250Z,11.50
2022-10-08T02:49:18.248Z,11.56
2022-10-08T02:50:18.227Z,11.56
2022-10-08T02:51:18.216Z,11.56
2022-10-08T02:52:18.205Z,11.56
2022-10-08T02:53:18.191Z,11.56
2022-10-08T02:54:18.230Z,11.54
2022-10-08T02:55:18.173Z,11.53
2022-10-08T02:56:18.184Z,11.52
2022-10-08T02:57:18.149Z,11.53
2022-10-08T02:58:18.140Z,11.52
2022-10-08T02:59:18.183Z,11.50
2022-10-08T03:00:18.129Z,11.52
2022-10-08T03:01:18.153Z,11.50
2022-10-08T03:02:18.137Z,11.52
2022-10-08T03:03:18.087Z,11.52
2022-10-08T03:04:18.110Z,11.49
2022-10-08T03:05:18.063Z,11.49
2022-10-08T03:06:18.070Z,11.49
2022-10-08T03:07:18.040Z,11.53
2022-10-08T03:08:18.025Z,11.56
2022-10-08T03:09:18.029Z,11.59
2022-10-08T03:10:18.041Z,11.62
2022-10-08T03:11:18.001Z,11.65
2022-10-08T03:12:17.986Z,11.67
2022-10-08T03:13:17.977Z,11.68
2022-10-08T03:14:18.006Z,11.68
2022-10-08T03:15:17.956Z,11.70
2022-10-08T03:16:18.011Z,11.71
2022-10-08T03:17:17.928Z,11.72
2022-10-08T03:18:17.910Z,11.72
2022-10-08T03:19:17.944Z,11.74
2022-10-08T03:20:17.894Z,11.74
2022-10-08T03:21:17.895Z,11.74
2022-10-08T03:22:17.878Z,11.72
2022-10-08T03:23:17.865Z,11.74
2022-10-08T03:24:17.870Z,11.72
2022-10-08T03:25:17.844Z,11.72
2022-10-08T03:26:17.828Z,11.71
2022-10-08T03:27:17.822Z,11.72
2022-10-08T03:28:17.950Z,11.71
2022-10-08T03:29:17.810Z,11.70
2022-10-08T03:30:17.787Z,11.70
2022-10-08T03:31:17.849Z,11.70
2022-10-08T03:32:17.817Z,11.68
2022-10-08T03:33:17.749Z,11.70
2022-10-08T03:34:17.776Z,11.68
2022-10-08T03:35:17.742Z,11.68
2022-10-08T03:36:17.717Z,11.68
2022-10-08T03:37:17.705Z,11.67
2022-10-08T03:38:17.722Z,11.67
2022-10-08T03:39:17.700Z,11.67
2022-10-08T03:40:17.681Z,11.65
2022-10-08T03:41:17.663Z,11.64
2022-10-08T03:42:17.648Z,11.65
2022-10-08T03:43:17.641Z,11.64
2022-10-08T03:44:17.654Z,11.62
2022-10-08T03:45:17.616Z,11.62
2022-10-08T03:46:17.684Z,11.61
2022-10-08T03:47:17.628Z,11.59
2022-10-08T03:48:17.585Z,11.59
2022-10-08T03:49:17.580Z,11.59
2022-10-08T03:50:17.564Z,11.57
2022-10-08T03:51:17.548Z,11.57
2022-10-08T03:52:17.538Z,11.56
2022-10-08T03:53:17.522Z,11.57
2022-10-08T03:54:17.537Z,11.56
2022-10-08T03:55:17.501Z,11.56
2022-10-08T03:56:17.489Z,11.54
2022-10-08T03:57:17.508Z,11.53
2022-10-08T03:58:17.472Z,11.53
2022-10-08T03:59:17.465Z,11.52
2022-10-08T04:00:17.446Z,11.52
2022-10-08T04:01:17.505Z,11.53
2022-10-08T04:02:17.469Z,11.52
2022-10-08T04:03:17.412Z,11.53
2022-10-08T04:04:20.653Z,11.53
2022-10-08T04:05:17.396Z,11.53
2022-10-08T04:06:17.399Z,11.52
2022-10-08T04:07:17.376Z,11.52
2022-10-08T04:08:17.357Z,11.52
2022-10-08T04:09:17.363Z,11.52
2022-10-08T04:10:17.345Z,11.53
2022-10-08T04:11:17.324Z,11.53
2022-10-08T04:12:17.324Z,11.52
2022-10-08T04:13:17.311Z,11.52
2022-10-08T04:14:17.327Z,11.52
2022-10-08T04:15:17.278Z,11.53
2022-10-08T04:16:17.352Z,11.50
2022-10-08T04:17:17.261Z,11.52
2022-10-08T04:18:17.247Z,11.52
2022-10-08T04:19:17.271Z,11.53
2022-10-08T04:20:17.222Z,11.50
2022-10-08T04:21:17.210Z,11.52
2022-10-08T04:22:17.199Z,11.52
2022-10-08T04:23:17.185Z,11.52
2022-10-08T04:24:17.209Z,11.53
2022-10-08T04:25:17.168Z,11.53
2022-10-08T04:26:17.154Z,11.53
2022-10-08T04:27:17.160Z,11.54
2022-10-08T04:28:17.184Z,11.54
2022-10-08T04:29:17.140Z,11.56
2022-10-08T04:30:17.120Z,11.54
2022-10-08T04:31:17.219Z,11.56
2022-10-08T04:32:17.091Z,11.56
2022-10-08T04:33:17.086Z,11.56
2022-10-08T04:34:17.090Z,11.59
2022-10-08T04:35:17.076Z,11.62
2022-10-08T04:36:17.058Z,11.65
2022-10-08T04:37:17.029Z,11.67
2022-10-08T04:38:17.030Z,11.70
2022-10-08T04:39:17.027Z,11.70
2022-10-08T04:40:17.001Z,11.68
2022-10-08T04:41:16.988Z,11.70
2022-10-08T04:42:16.980Z,11.70
2022-10-08T04:43:16.970Z,11.68
2022-10-08T04:44:16.968Z,11.70
2022-10-08T04:45:16.941Z,11.70
2022-10-08T04:46:17.017Z,11.70
2022-10-08T04:47:16.923Z,11.68
2022-10-08T04:48:16.912Z,11.70
2022-10-08T04:49:16.918Z,11.71
2022-10-08T04:50:16.894Z,11.74
2022-10-08T04:51:16.876Z,11.72
2022-10-08T04:52:16.863Z,11.71
2022-10-08T04:53:16.872Z,11.72
2022-10-08T04:54:16.858Z,11.71
2022-10-08T04:55:16.834Z,11.71
2022-10-08T04:56:16.824Z,11.70
2022-10-08T04:57:16.809Z,11.70
2022-10-08T04:58:16.796Z,11.67
2022-10-08T04:59:16.822Z,11.67
2022-10-08T05:00:19.118Z,11.67
2022-10-08T05:01:16.837Z,11.64
2022-10-08T05:02:16.771Z,11.64
2022-10-08T05:03:16.742Z,11.65
2022-10-08T05:04:16.745Z,11.68
2022-10-08T05:05:16.716Z,11.68
2022-10-08T05:06:16.718Z,11.68
2022-10-08T05:07:16.695Z,11.70
2022-10-08T05:08:16.693Z,11.70
2022-10-08T05:09:16.684Z,11.67
2022-10-08T05:10:16.678Z,11.67
2022-10-08T05:11:16.648Z,11.67
2022-10-08T05:12:16.648Z,11.67
2022-10-08T05:13:16.633Z,11.67
2022-10-08T05:14:16.644Z,11.67
2022-10-08T05:15:16.605Z,11.67
2022-10-08T05:16:16.688Z,11.65
2022-10-08T05:17:16.598Z,11.65
2022-10-08T05:18:16.574Z,11.65
2022-10-08T05:19:16.577Z,11.64
2022-10-08T05:20:16.548Z,11.64
2022-10-08T05:21:16.597Z,11.65
2022-10-08T05:22:16.528Z,11.64
2022-10-08T05:23:16.517Z,11.62
2022-10-08T05:24:16.537Z,11.64
2022-10-08T05:25:16.499Z,11.64
2022-10-08T05:26:16.489Z,11.64
2022-10-08T05:27:16.471Z,11.64
2022-10-08T05:28:16.507Z,11.64
2022-10-08T05:29:16.447Z,11.64
2022-10-08T05:30:21.082Z,11.65
2022-10-08T05:31:16.584Z,11.65
2022-10-08T05:32:16.415Z,11.65
2022-10-08T05:33:16.411Z,11.67
2022-10-08T05:34:16.416Z,11.67
2022-10-08T05:35:16.399Z,11.67
2022-10-08T05:36:16.405Z,11.67
2022-10-08T05:37:16.354Z,11.68
2022-10-08T05:38:16.535Z,11.67
2022-10-08T05:39:16.340Z,11.65
2022-10-08T05:40:16.348Z,11.65
2022-10-08T05:41:16.318Z,11.65
2022-10-08T05:42:16.325Z,11.65
2022-10-08T05:43:16.293Z,11.64
2022-10-08T05:44:16.281Z,11.65
2022-10-08T05:45:16.336Z,11.65
2022-10-08T05:46:16.286Z,11.64
2022-10-08T05:47:16.245Z,11.61
2022-10-08T05:48:16.241Z,11.62
2022-10-08T05:49:16.218Z,11.61
2022-10-08T05:50:16.232Z,11.59
2022-10-08T05:51:16.200Z,11.59
2022-10-08T05:52:16.200Z,11.59
2022-10-08T05:53:16.176Z,11.57
2022-10-08T05:54:16.175Z,11.56
2022-10-08T05:55:16.437Z,11.56
2022-10-08T05:56:16.277Z,11.54
2022-10-08T05:57:16.173Z,11.54
2022-10-08T05:58:16.132Z,11.53
2022-10-08T05:59:16.113Z,11.54
2022-10-08T06:00:16.122Z,11.57
2022-10-08T06:01:16.115Z,11.59
2022-10-08T06:02:16.085Z,11.61
2022-10-08T06:03:16.271Z,11.62
2022-10-08T06:04:16.090Z,11.64
2022-10-08T06:05:16.063Z,11.67
2022-10-08T06:06:16.065Z,11.70
2022-10-08T06:07:16.022Z,11.71
2022-10-08T06:08:16.017Z,11.71
2022-10-08T06:09:16.002Z,11.72
2022-10-08T06:10:16.055Z,11.74
2022-10-08T06:11:15.983Z,11.75
2022-10-08T06:12:16.002Z,11.75
2022-10-08T06:13:15.960Z,11.77
2022-10-08T06:14:15.946Z,11.80
2022-10-08T06:15:24.736Z,11.80
2022-10-08T06:16:15.975Z,11.83
2022-10-08T06:17:15.911Z,11.87
2022-10-08T06:18:15.921Z,11.89
2022-10-08T06:19:15.897Z,11.89
2022-10-08T06:20:15.906Z,11.90
2022-10-08T06:21:15.879Z,11.94
2022-10-08T06:22:15.889Z,11.94
2022-10-08T06:23:15.850Z,11.99
2022-10-08T06:24:15.852Z,12.02
2022-10-08T06:25:15.859Z,12.05
2022-10-08T06:26:15.825Z,12.06
2022-10-08T06:27:15.808Z,12.06
2022-10-08T06:28:15.847Z,12.05
2022-10-08T06:29:15.787Z,12.05
2022-10-08T06:30:15.803Z,12.02
2022-10-08T06:31:15.781Z,12.01
2022-10-08T06:32:15.762Z,11.99
2022-10-08T06:33:15.734Z,11.94
2022-10-08T06:34:15.725Z,11.93
2022-10-08T06:35:15.735Z,11.87
2022-10-08T06:36:15.709Z,11.86
2022-10-08T06:37:15.698Z,11.87
2022-10-08T06:38:15.679Z,11.85
2022-10-08T06:39:15.674Z,11.85
2022-10-08T06:40:15.681Z,11.82
2022-10-08T06:41:15.737Z,11.80
2022-10-08T06:42:16.656Z,11.78
2022-10-08T06:43:15.637Z,11.75
2022-10-08T06:44:15.629Z,11.74
2022-10-08T06:45:15.632Z,11.71
2022-10-08T06:46:15.648Z,11.68
2022-10-08T06:47:15.578Z,11.65
2022-10-08T06:48:15.579Z,11.67
2022-10-08T06:49:15.554Z,11.65
2022-10-08T06:50:15.569Z,11.64
2022-10-08T06:51:15.531Z,11.61
2022-10-08T06:52:15.533Z,11.62
2022-10-08T06:53:15.514Z,11.59
2022-10-08T06:54:15.495Z,11.59
2022-10-08T06:55:15.529Z,11.57
2022-10-08T06:56:15.477Z,11.57
2022-10-08T06:57:15.470Z,11.57
2022-10-08T06:58:15.463Z,11.56
2022-10-08T06:59:15.466Z,11.57
2022-10-08T07:00:15.459Z,11.56
2022-10-08T07:01:15.471Z,11.57
2022-10-08T07:02:15.611Z,11.59
2022-10-08T07:03:15.401Z,11.62
2022-10-08T07:04:15.454Z,11.64
2022-10-08T07:05:15.441Z,11.62
2022-10-08T07:06:15.389Z,11.62
2022-10-08T07:07:15.361Z,11.62
2022-10-08T07:08:15.440Z,11.61
2022-10-08T07:09:15.343Z,11.61
2022-10-08T07:10:18.338Z,11.62
2022-10-08T07:11:15.318Z,11.61
2022-10-08T07:12:15.351Z,11.61
2022-10-08T07:13:15.302Z,11.61
2022-10-08T07:14:15.291Z,11.61
2022-10-08T07:15:15.337Z,11.62
2022-10-08T07:16:20.384Z,11.65
2022-10-08T07:17:15.249Z,11.68
2022-10-08T07:18:15.250Z,11.68
2022-10-08T07:19:15.227Z,11.71
2022-10-08T07:20:15.229Z,11.74
2022-10-08T07:21:15.229Z,11.75
2022-10-08T07:22:15.234Z,11.74
2022-10-08T07:23:15.189Z,11.75
2022-10-08T07:24:15.223Z,11.75
2022-10-08T07:25:15.193Z,11.77
2022-10-08T07:26:15.149Z,11.78
2022-10-08T07:27:15.134Z,11.77
2022-10-08T07:28:15.180Z,11.82
2022-10-08T07:29:15.118Z,11.83
2022-10-08T07:30:15.140Z,11.85
2022-10-08T07:31:15.170Z,11.86
2022-10-08T07:32:15.089Z,11.87
2022-10-08T07:33:15.086Z,11.89
2022-10-08T07:34:15.085Z,11.93
2022-10-08T07:35:15.064Z,11.94
2022-10-08T07:36:15.057Z,12.01
2022-10-08T07:37:15.028Z,12.11
2022-10-08T07:38:15.036Z,12.16
2022-10-08T07:39:15.019Z,12.26
2022-10-08T07:40:15.032Z,12.37
2022-10-08T07:41:14.994Z,12.42
2022-10-08T07:42:14.967Z,12.44
2022-10-08T07:43:19.524Z,12.48
2022-10-08T07:44:14.950Z,12.51
2022-10-08T07:45:14.984Z,12.51
2022-10-08T07:46:15.055Z,12.52
2022-10-08T07:47:14.921Z,12.51
2022-10-08T07:48:14.936Z,12.51
2022-10-08T07:49:14.915Z,12.57
2022-10-08T07:50:14.913Z,12.60
2022-10-08T07:51:14.878Z,12.63
2022-10-08T07:52:14.887Z,12.66
2022-10-08T07:53:14.901Z,12.66
2022-10-08T07:54:14.846Z,12.66
2022-10-08T07:55:14.885Z,12.67
2022-10-08T07:56:14.811Z,12.69
2022-10-08T07:57:14.803Z,12.67
2022-10-08T07:58:14.820Z,12.70
2022-10-08T07:59:14.795Z,12.70
2022-10-08T08:00:14.785Z,12.71
2022-10-08T08:01:14.919Z,12.74
2022-10-08T08:02:14.785Z,12.77
2022-10-08T08:03:14.739Z,12.79
2022-10-08T08:04:14.755Z,12.81
2022-10-08T08:05:14.742Z,12.81
2022-10-08T08:06:14.716Z,12.87
2022-10-08T08:07:14.692Z,12.89
2022-10-08T08:08:14.694Z,12.89
2022-10-08T08:09:14.674Z,12.89
2022-10-08T08:10:14.679Z,12.89
2022-10-08T08:11:14.650Z,12.92
2022-10-08T08:12:14.644Z,12.93
2022-10-08T08:13:14.633Z,12.93
2022-10-08T08:14:14.625Z,12.99
2022-10-08T08:15:14.631Z,12.97
2022-10-08T08:16:14.639Z,13.02
2022-10-08T08:17:14.587Z,13.03
2022-10-08T08:18:14.572Z,13.04
2022-10-08T08:19:14.566Z,13.06
2022-10-08T08:20:14.572Z,13.09
2022-10-08T08:21:14.542Z,13.14
2022-10-08T08:22:14.519Z,13.17
2022-10-08T08:23:14.515Z,13.20
2022-10-08T08:24:14.507Z,13.27
2022-10-08T08:25:14.535Z,13.32
2022-10-08T08:26:14.500Z,13.33
2022-10-08T08:27:14.469Z,13.37
2022-10-08T08:28:14.500Z,13.40
2022-10-08T08:29:14.458Z,13.41
2022-10-08T08:30:14.465Z,13.41
2022-10-08T08:31:14.438Z,13.40
2022-10-08T08:32:14.504Z,13.38
2022-10-08T08:33:14.419Z,13.38
2022-10-08T08:34:14.420Z,13.36
2022-10-08T08:35:14.400Z,13.38
2022-10-08T08:36:14.395Z,13.38
2022-10-08T08:37:14.359Z,13.38
2022-10-08T08:38:14.348Z,13.38
2022-10-08T08:39:14.354Z,13.40
2022-10-08T08:40:14.365Z,13.38
2022-10-08T08:41:17.464Z,13.38
2022-10-08T08:42:14.319Z,13.41
2022-10-08T08:43:14.315Z,13.46
2022-10-08T08:44:14.292Z,13.49
2022-10-08T08:45:34.245Z,13.58
2022-10-08T08:46:14.287Z,13.59
2022-10-08T08:47:14.258Z,13.63
2022-10-08T08:48:14.253Z,13.65
2022-10-08T08:49:14.242Z,13.70
2022-10-08T08:50:14.252Z,13.76
2022-10-08T08:51:14.215Z,13.79
2022-10-08T08:52:14.197Z,13.81
2022-10-08T08:53:14.201Z,13.83
2022-10-08T08:54:14.190Z,13.92
2022-10-08T08:55:14.195Z,14.06
2022-10-08T08:56:14.157Z,14.16
2022-10-08T08:57:14.159Z,14.21
2022-10-08T08:58:14.140Z,14.28
2022-10-08T08:59:14.121Z,14.34
2022-10-08T09:00:14.130Z,14.42
2022-10-08T09:01:14.189Z,14.46
2022-10-08T09:02:14.089Z,14.49
2022-10-08T09:03:14.076Z,14.52
2022-10-08T09:04:14.078Z,14.52
2022-10-08T09:05:14.105Z,14.52
2022-10-08T09:06:14.046Z,14.52
2022-10-08T09:07:14.040Z,14.52
2022-10-08T09:08:14.069Z,14.54
2022-10-08T09:09:14.007Z,14.54
2022-10-08T09:10:14.021Z,14.53
2022-10-08T09:11:13.985Z,14.50
2022-10-08T09:12:16.495Z,14.50
2022-10-08T09:13:13.975Z,14.50
2022-10-08T09:14:13.966Z,14.47
2022-10-08T09:15:13.972Z,14.42
2022-10-08T09:16:14.024Z,14.42
2022-10-08T09:17:13.923Z,14.39
2022-10-08T09:18:13.932Z,14.37
2022-10-08T09:19:13.909Z,14.35
2022-10-08T09:20:13.918Z,14.34
2022-10-08T09:21:14.068Z,14.34
2022-10-08T09:22:13.868Z,14.34
2022-10-08T09:23:13.881Z,14.31
2022-10-08T09:24:13.896Z,14.31
2022-10-08T09:25:13.847Z,14.28
2022-10-08T09:26:13.846Z,14.31
2022-10-08T09:27:13.805Z,14.34
2022-10-08T09:28:13.869Z,14.46
2022-10-08T09:29:14.007Z,14.50
2022-10-08T09:30:13.801Z,14.54
2022-10-08T09:31:13.858Z,14.56
2022-10-08T09:32:13.751Z,14.54
2022-10-08T09:33:13.757Z,14.56
2022-10-08T09:34:13.735Z,14.65
2022-10-08T09:35:13.762Z,14.68
2022-10-08T09:36:13.711Z,14.69
2022-10-08T09:37:13.720Z,14.80
2022-10-08T09:38:14.778Z,14.83
2022-10-08T09:39:13.695Z,14.84
2022-10-08T09:40:13.692Z,14.81
2022-10-08T09:41:13.660Z,14.80
2022-10-08T09:42:13.639Z,14.75
2022-10-08T09:43:13.652Z,14.75
2022-10-08T09:44:13.641Z,14.71
2022-10-08T09:45:13.626Z,14.71
2022-10-08T09:46:13.656Z,14.72
2022-10-08T09:47:13.605Z,14.74
2022-10-08T09:48:13.582Z,14.75
2022-10-08T09:49:13.574Z,14.78
2022-10-08T09:50:13.585Z,14.81
2022-10-08T09:51:13.548Z,14.87
2022-10-08T09:52:17.127Z,14.88
2022-10-08T09:53:13.535Z,14.95
2022-10-08T09:54:13.520Z,15.02
2022-10-08T09:55:13.552Z,15.02
2022-10-08T09:56:13.508Z,15.05
2022-10-08T09:57:13.485Z,15.05
2022-10-08T09:58:13.479Z,15.02
2022-10-08T09:59:13.482Z,14.98
2022-10-08T10:00:13.475Z,14.94
2022-10-08T10:01:13.479Z,14.88
2022-10-08T10:02:13.429Z,14.90
2022-10-08T10:03:13.425Z,14.98
2022-10-08T10:04:13.446Z,15.01
2022-10-08T10:05:13.412Z,15.03
2022-10-08T10:06:15.808Z,15.02
2022-10-08T10:07:13.384Z,15.02
2022-10-08T10:08:13.372Z,15.01
2022-10-08T10:09:13.350Z,15.01
2022-10-08T10:10:13.353Z,15.05
2022-10-08T10:11:13.333Z,15.06
2022-10-08T10:12:13.326Z,15.08
2022-10-08T10:13:13.311Z,15.15
2022-10-08T10:14:13.304Z,15.20
2022-10-08T10:15:13.322Z,15.24
2022-10-08T10:16:13.296Z,15.27
2022-10-08T10:17:13.270Z,15.26
2022-10-08T10:18:13.262Z,15.27
2022-10-08T10:19:13.242Z,15.23
2022-10-08T10:20:13.254Z,15.20
2022-10-08T10:21:13.250Z,15.26
2022-10-08T10:22:13.225Z,15.24
2022-10-08T10:23:13.200Z,15.24
2022-10-08T10:24:13.203Z,15.21
2022-10-08T10:25:13.179Z,15.26
2022-10-08T10:26:13.208Z,15.27
2022-10-08T10:27:13.193Z,15.28
2022-10-08T10:28:13.235Z,15.28
2022-10-08T10:29:13.140Z,15.24
2022-10-08T10:30:13.154Z,15.21
2022-10-08T10:31:13.210Z,15.20
2022-10-08T10:32:14.746Z,15.23
2022-10-08T10:33:13.095Z,15.31
2022-10-08T10:34:13.090Z,15.42
2022-10-08T10:35:13.088Z,15.48
2022-10-08T10:36:13.092Z,15.56
2022-10-08T10:37:13.049Z,15.61
2022-10-08T10:38:13.046Z,15.70
2022-10-08T10:39:13.055Z,15.79
2022-10-08T10:40:13.015Z,15.88
2022-10-08T10:41:13.033Z,15.97
2022-10-08T10:42:13.007Z,15.99
2022-10-08T10:43:12.997Z,16.07
2022-10-08T10:44:12.977Z,16.11
2022-10-08T10:45:12.985Z,16.15
2022-10-08T10:46:13.046Z,16.23
2022-10-08T10:47:12.946Z,16.34
2022-10-08T10:48:12.950Z,16.37
2022-10-08T10:49:12.927Z,16.34
2022-10-08T10:50:12.919Z,16.33
2022-10-08T10:51:12.935Z,16.30
2022-10-08T10:52:12.892Z,16.18
2022-10-08T10:53:12.899Z,16.11
2022-10-08T10:54:12.879Z,16.03
2022-10-08T10:55:12.856Z,15.96
2022-10-08T10:56:12.882Z,15.94
2022-10-08T10:57:12.830Z,15.92
2022-10-08T10:58:12.822Z,15.88
2022-10-08T10:59:12.811Z,15.81
2022-10-08T11:00:12.809Z,15.66
2022-10-08T11:01:12.848Z,15.61
2022-10-08T11:02:12.808Z,15.54
2022-10-08T11:03:12.854Z,15.46
2022-10-08T11:04:12.754Z,15.43
2022-10-08T11:05:12.746Z,15.42
2022-10-08T11:06:12.759Z,15.36
2022-10-08T11:07:12.724Z,15.33
2022-10-08T11:08:12.728Z,15.28
2022-10-08T11:09:12.696Z,15.23
2022-10-08T11:10:12.700Z,15.21
2022-10-08T11:11:12.702Z,15.17
2022-10-08T11:12:12.679Z,15.11
2022-10-08T11:13:12.676Z,15.11
2022-10-08T11:14:12.748Z,15.09
2022-10-08T11:15:12.637Z,15.13
2022-10-08T11:16:12.679Z,15.19
2022-10-08T11:17:12.620Z,15.23
2022-10-08T11:18:12.612Z,15.26
2022-10-08T11:19:12.596Z,15.33
2022-10-08T11:20:12.634Z,15.48
2022-10-08T11:21:12.599Z,15.63
2022-10-08T11:22:12.591Z,15.78
2022-10-08T11:23:12.563Z,15.89
2022-10-08T11:24:12.549Z,15.96
2022-10-08T11:25:12.531Z,16.04
2022-10-08T11:26:22.380Z,16.14
2022-10-08T11:27:12.513Z,16.23
2022-10-08T11:28:12.546Z,16.33
2022-10-08T11:29:12.483Z,16.38
2022-10-08T11:30:12.479Z,16.41
2022-10-08T11:31:12.585Z,16.35
2022-10-08T11:32:12.460Z,16.26
2022-10-08T11:33:12.470Z,16.22
2022-10-08T11:34:12.529Z,16.09
2022-10-08T11:35:12.464Z,16.03
2022-10-08T11:36:12.419Z,15.84
2022-10-08T11:37:12.487Z,15.68
2022-10-08T11:38:12.382Z,15.61
2022-10-08T11:39:12.376Z,15.57
2022-10-08T11:40:12.401Z,15.54
2022-10-08T11:41:12.370Z,15.49
2022-10-08T11:42:12.348Z,15.46
2022-10-08T11:43:12.325Z,15.48
2022-10-08T11:44:12.333Z,15.42
2022-10-08T11:45:12.312Z,15.39
2022-10-08T11:46:12.370Z,15.35
2022-10-08T11:47:12.287Z,15.33
2022-10-08T11:48:12.273Z,15.27
2022-10-08T11:49:12.259Z,15.26
2022-10-08T11:50:12.252Z,15.26
2022-10-08T11:51:12.259Z,15.27
2022-10-08T11:52:12.227Z,15.28
2022-10-08T11:53:12.209Z,15.31
2022-10-08T11:54:12.204Z,15.33
2022-10-08T11:55:12.201Z,15.35
2022-10-08T11:56:12.213Z,15.39
2022-10-08T11:57:12.175Z,15.42
2022-10-08T11:58:12.177Z,15.43
2022-10-08T11:59:12.142Z,15.46
2022-10-08T12:00:12.148Z,15.43
2022-10-08T12:01:12.150Z,15.35
2022-10-08T12:02:12.213Z,15.30
2022-10-08T12:03:12.203Z,15.27
2022-10-08T12:04:12.103Z,15.28
2022-10-08T12:05:12.079Z,15.31
2022-10-08T12:06:12.089Z,15.35
2022-10-08T12:07:12.071Z,15.36
2022-10-08T12:08:12.059Z,15.41
2022-10-08T12:09:12.037Z,15.43
2022-10-08T12:10:12.035Z,15.48
2022-10-08T12:11:12.164Z,15.54
2022-10-08T12:12:12.012Z,15.57
2022-10-08T12:13:16.739Z,15.63
2022-10-08T12:14:11.994Z,15.68
2022-10-08T12:15:18.530Z,15.76
2022-10-08T12:16:12.026Z,15.85
2022-10-08T12:17:11.958Z,15.94
2022-10-08T12:18:11.941Z,16.04
2022-10-08T12:19:11.928Z,16.12
2022-10-08T12:20:11.932Z,16.18
2022-10-08T12:21:11.924Z,16.25
2022-10-08T12:22:11.893Z,16.31
2022-10-08T12:23:11.882Z,16.34
2022-10-08T12:24:11.874Z,16.41
2022-10-08T12:25:11.871Z,16.48
2022-10-08T12:26:11.875Z,16.52
2022-10-08T12:27:11.846Z,16.53
2022-10-08T12:28:11.896Z,16.53
2022-10-08T12:29:11.816Z,16.52
2022-10-08T12:30:11.809Z,16.45
2022-10-08T12:31:11.864Z,16.41
2022-10-08T12:32:11.799Z,16.38
2022-10-08T12:33:11.768Z,16.37
2022-10-08T12:34:11.756Z,16.37
2022-10-08T12:35:11.761Z,16.37
2022-10-08T12:36:11.761Z,16.31
2022-10-08T12:37:15.792Z,16.26
2022-10-08T12:38:11.736Z,16.20
2022-10-08T12:39:11.697Z,16.09
2022-10-08T12:40:11.721Z,16.00
2022-10-08T12:41:11.707Z,15.92
2022-10-08T12:42:11.683Z,15.94
2022-10-08T12:43:11.658Z,15.89
2022-10-08T12:44:11.680Z,15.85
2022-10-08T12:45:11.627Z,15.76
2022-10-08T12:46:11.691Z,15.64
2022-10-08T12:47:11.614Z,15.56
2022-10-08T12:48:11.614Z,15.49
2022-10-08T12:49:11.586Z,15.48
2022-10-08T12:50:11.659Z,15.48
2022-10-08T12:51:11.594Z,15.46
2022-10-08T12:52:11.555Z,15.45